Time;durP1;ratioP1;P1;durP2;ratioP2;P2;SDS_P1;SDS_P2;PMS_P1;PMS_P2;Temp;Humidity;BMP_temperature;BMP_pressure;BME280_temperature;BME280_humidity;BME280_pressure;Samples;Min_cycle;Max_cycle;Signal;HPM_P1;HPM_P2
2022/11/04 00:00:34;;;;;;;4.28;2.00;;;;;;;9.78;100.00;97093.81;15275879;19;20388;-58
2022/11/04 00:05:58;;;;;;;3.78;1.88;;;;;;;9.75;100.00;97113.00;15271351;19;20602;-60
2022/11/04 00:34:01;;;;;;;3.07;1.80;;;;;;;9.63;100.00;97128.81;15268605;19;20029;-59
2022/11/04 00:39:25;;;;;;;4.47;2.10;;;;;;;9.63;100.00;97122.56;15271538;19;20039;-60
2022/11/04 00:44:52;;;;;;;3.00;1.80;;;;;;;9.64;100.00;97118.88;15270166;19;20018;-59
2022/11/04 00:50:17;;;;;;;4.13;1.80;;;;;;;9.63;100.00;97122.56;15266956;19;20651;-59
2022/11/04 00:55:48;;;;;;;4.28;2.13;;;;;;;9.63;100.00;97106.44;15265163;19;20413;-58
2022/11/04 01:01:18;;;;;;;2.90;1.90;;;;;;;9.64;100.00;97108.09;15268203;19;20014;-58
2022/11/04 01:06:43;;;;;;;3.20;2.00;;;;;;;9.63;100.00;97117.19;15263453;19;20035;-59
2022/11/04 01:12:08;;;;;;;2.40;1.85;;;;;;;9.65;100.00;97120.53;15267910;19;20011;-58
2022/11/04 01:17:35;;;;;;;2.95;1.92;;;;;;;9.63;100.00;97125.25;15267109;19;20052;-58
2022/11/04 01:23:00;;;;;;;4.15;2.10;;;;;;;9.62;100.00;97120.91;15264264;19;20057;-59
2022/11/04 01:28:24;;;;;;;3.67;1.92;;;;;;;9.60;100.00;97122.94;15263191;19;20035;-60
2022/11/04 01:33:53;;;;;;;2.85;1.95;;;;;;;9.60;100.00;97117.56;15265353;19;20371;-60
2022/11/04 01:39:17;;;;;;;4.53;2.20;;;;;;;9.59;100.00;97115.88;15267550;19;20412;-60
2022/11/04 01:44:50;;;;;;;4.05;1.83;;;;;;;9.59;100.00;97105.13;15268982;19;20106;-60
2022/11/04 01:50:20;;;;;;;2.72;2.00;;;;;;;9.56;100.00;97104.50;15266166;19;20038;-60
2022/11/04 01:55:57;;;;;;;3.25;1.90;;;;;;;9.60;100.00;97114.88;15255329;19;20010;-60
2022/11/04 02:01:22;;;;;;;3.58;2.10;;;;;;;9.61;100.00;97121.91;15264129;19;20022;-61
2022/11/04 02:06:49;;;;;;;4.03;2.05;;;;;;;9.62;100.00;97112.84;15261831;19;20014;-61
2022/11/04 02:18:12;;;;;;;2.97;2.00;;;;;;;9.67;100.00;97119.31;15268417;19;20036;-60
2022/11/04 02:24:15;;;;;;;2.45;1.73;;;;;;;9.71;100.00;97114.38;15275659;19;20044;-62
2022/11/04 02:30:06;;;;;;;2.70;1.77;;;;;;;9.73;100.00;97109.66;15278855;19;20352;-61
2022/11/04 02:35:40;;;;;;;4.22;2.42;;;;;;;9.75;100.00;97109.50;15277134;19;20010;-60
2022/11/04 02:41:11;;;;;;;4.28;2.05;;;;;;;9.77;100.00;97097.53;15278087;19;20018;-60
2022/11/04 02:46:41;;;;;;;3.40;1.97;;;;;;;9.79;100.00;97091.94;15275418;19;20475;-59
2022/11/04 02:52:13;;;;;;;4.23;2.00;;;;;;;9.81;100.00;97096.13;15275600;19;20006;-61
2022/11/04 02:57:41;;;;;;;3.57;1.90;;;;;;;9.82;100.00;97121.16;15272219;19;20010;-61
2022/11/04 03:03:14;;;;;;;4.10;2.05;;;;;;;9.81;100.00;97136.47;15276237;19;20014;-61
2022/11/04 03:08:42;;;;;;;3.53;2.10;;;;;;;9.78;100.00;97142.22;15271779;19;20608;-61
2022/11/04 03:14:13;;;;;;;3.55;2.17;;;;;;;9.78;100.00;97146.75;15275145;19;20815;-60
2022/11/04 03:19:49;;;;;;;3.72;1.88;;;;;;;9.78;100.00;97152.13;15278307;19;20007;-62
2022/11/04 03:25:16;;;;;;;3.40;2.10;;;;;;;9.76;100.00;97163.09;15277120;19;20030;-61
2022/11/04 03:30:46;;;;;;;5.57;2.25;;;;;;;9.81;100.00;97163.38;15270818;19;20015;-60
2022/11/04 03:36:14;;;;;;;3.83;2.00;;;;;;;9.84;100.00;97179.09;15276396;19;20411;-61
2022/11/04 03:41:45;;;;;;;2.70;1.88;;;;;;;9.90;100.00;97192.84;15275404;19;20018;-59
2022/11/04 03:47:09;;;;;;;3.88;1.92;;;;;;;9.90;100.00;97192.84;15272960;19;20022;-59
2022/11/04 03:52:38;;;;;;;4.13;1.90;;;;;;;9.87;100.00;97194.88;15273730;19;20378;-59
2022/11/04 03:58:09;;;;;;;2.33;1.80;;;;;;;9.86;100.00;97192.41;15276298;19;20023;-60
2022/11/04 04:03:41;;;;;;;3.13;1.70;;;;;;;9.83;100.00;97196.28;15268800;19;20025;-59
2022/11/04 04:09:16;;;;;;;3.58;2.00;;;;;;;9.79;100.00;97197.69;15269065;19;20656;-61
2022/11/04 04:14:44;;;;;;;3.10;1.88;;;;;;;9.79;100.00;97196.84;15274613;19;20010;-59
2022/11/04 04:20:11;;;;;;;3.63;1.80;;;;;;;9.79;100.00;97194.16;15273501;19;20017;-61
2022/11/04 04:37:07;;;;;;;4.00;1.80;;;;;;;9.75;100.00;97222.44;15267675;19;20010;-60
2022/11/04 04:48:29;;;;;;;2.25;1.80;;;;;;;9.75;100.00;97225.97;15266989;19;20086;-60
2022/11/04 04:54:00;;;;;;;3.15;1.70;;;;;;;9.77;100.00;97234.69;15267552;19;20018;-58
2022/11/04 04:59:27;;;;;;;2.00;1.80;;;;;;;9.78;100.00;97224.75;15268996;19;20024;-60
2022/11/04 05:04:52;;;;;;;1.90;1.60;;;;;;;9.78;100.00;97228.28;15270098;19;20033;-60
2022/11/04 05:10:18;;;;;;;2.25;1.60;;;;;;;9.79;100.00;97239.88;15263440;19;20022;-60
2022/11/04 05:15:45;;;;;;;2.95;1.70;;;;;;;9.77;100.00;97242.75;15265737;19;20365;-60
2022/11/04 05:21:14;;;;;;;2.75;1.75;;;;;;;9.77;100.00;97248.13;15268800;19;20380;-59
2022/11/04 05:26:38;;;;;;;2.20;1.85;;;;;;;9.78;100.00;97260.56;15265347;19;20018;-60
2022/11/04 05:32:06;;;;;;;3.53;1.80;;;;;;;9.79;100.00;97261.38;15262882;19;20098;-60
2022/11/04 05:37:30;;;;;;;2.80;1.90;;;;;;;9.77;100.00;97269.66;15259208;19;20018;-60
2022/11/04 05:42:55;;;;;;;1.77;1.60;;;;;;;9.76;100.00;97273.34;15260510;19;20023;-60
2022/11/04 05:48:22;;;;;;;1.85;1.60;;;;;;;9.75;100.00;97277.06;15263090;19;20025;-60
2022/11/04 05:53:54;;;;;;;3.60;1.75;;;;;;;9.75;100.00;97277.06;15270473;19;20026;-60
2022/11/04 05:59:19;;;;;;;1.75;1.65;;;;;;;9.76;100.00;97286.81;15281781;19;20019;-59
2022/11/04 06:04:46;;;;;;;2.22;1.80;;;;;;;9.73;100.00;97295.22;15281841;19;20851;-59
2022/11/04 06:10:12;;;;;;;2.80;2.10;;;;;;;9.71;100.00;97297.25;15279708;19;20007;-58
2022/11/04 06:15:36;;;;;;;1.60;1.50;;;;;;;9.57;100.00;97320.44;15279636;19;20014;-59
2022/11/04 06:21:26;;;;;;;2.33;1.83;;;;;;;9.58;100.00;97324.78;15279884;19;20029;-58
2022/11/04 06:26:50;;;;;;;1.58;1.40;;;;;;;9.57;100.00;97317.75;15275350;19;20469;-59
2022/11/04 06:32:19;;;;;;;1.50;1.40;;;;;;;9.64;100.00;97294.47;15275772;19;20022;-57
2022/11/04 06:37:46;;;;;;;1.40;1.30;;;;;;;9.68;100.00;97294.97;15279290;19;20401;-58
2022/11/04 06:43:11;;;;;;;1.55;1.20;;;;;;;9.70;100.00;97298.31;15270723;19;20415;-59
2022/11/04 06:48:36;;;;;;;1.33;1.23;;;;;;;9.69;100.00;97304.69;15274872;19;20015;-55
2022/11/04 06:54:10;;;;;;;1.83;1.13;;;;;;;9.72;100.00;97307.00;15274651;19;20018;-59
2022/11/04 06:59:35;;;;;;;1.30;1.20;;;;;;;9.68;100.00;97341.50;15279630;19;20011;-58
2022/11/04 07:04:59;;;;;;;1.98;1.05;;;;;;;9.81;100.00;97366.94;15278918;19;20015;-58
2022/11/04 07:10:26;;;;;;;1.20;0.93;;;;;;;9.81;100.00;97372.31;15278113;19;20029;-58
2022/11/04 07:15:50;;;;;;;1.38;1.10;;;;;;;9.83;100.00;97362.22;15276166;19;20550;-56
2022/11/04 07:21:15;;;;;;;0.65;0.65;;;;;;;9.83;100.00;97383.75;15276953;19;20023;-55
2022/11/04 07:26:42;;;;;;;1.08;0.85;;;;;;;9.82;100.00;97358.69;15278311;19;20019;-58
2022/11/04 07:32:07;;;;;;;1.15;0.70;;;;;;;9.75;100.00;97330.84;15274607;19;20022;-58
2022/11/04 07:37:31;;;;;;;2.15;0.60;;;;;;;9.72;100.00;97358.09;15277150;19;20357;-57
2022/11/04 07:42:58;;;;;;;1.50;0.80;;;;;;;9.67;100.00;97382.03;15274339;19;20359;-56
2022/11/04 07:48:22;;;;;;;0.65;0.50;;;;;;;9.67;100.00;97392.78;15270974;19;20026;-57
2022/11/04 07:53:47;;;;;;;0.90;0.77;;;;;;;9.64;100.00;97422.72;15272054;19;20026;-58
2022/11/04 07:59:16;;;;;;;0.68;0.68;;;;;;;9.64;100.00;97431.63;15277773;19;20031;-58
2022/11/04 08:04:41;;;;;;;0.77;0.70;;;;;;;9.60;100.00;97438.38;15274933;19;20020;-58
2022/11/04 08:10:05;;;;;;;0.73;0.50;;;;;;;9.62;100.00;97427.44;15270788;19;20022;-57
2022/11/04 08:15:32;;;;;;;0.60;0.60;;;;;;;9.62;100.00;97416.69;15274644;19;20018;-58
2022/11/04 08:20:58;;;;;;;0.50;0.35;;;;;;;9.64;100.00;97388.59;15268434;19;20021;-59
2022/11/04 08:26:24;;;;;;;0.85;0.47;;;;;;;9.64;100.00;97377.00;15269074;19;20018;-64
2022/11/04 08:31:51;;;;;;;0.35;0.30;;;;;;;9.63;100.00;97357.38;15268814;19;20461;-67
2022/11/04 08:37:16;;;;;;;1.52;0.40;;;;;;;9.55;100.00;97323.31;15269449;19;20038;-66
2022/11/04 08:42:40;;;;;;;0.40;0.30;;;;;;;9.53;100.00;97301.16;15268251;19;20023;-66
2022/11/04 08:48:08;;;;;;;0.65;0.25;;;;;;;9.54;100.00;97302.81;15265663;19;20085;-67
2022/11/04 08:53:33;;;;;;;0.50;0.32;;;;;;;9.64;100.00;97285.56;15263357;19;20021;-66
2022/11/04 08:59:00;;;;;;;0.57;0.32;;;;;;;9.67;100.00;97306.75;15267866;19;20699;-64
2022/11/04 09:04:27;;;;;;;0.47;0.30;;;;;;;9.62;100.00;97295.69;15269587;19;20021;-67
2022/11/04 09:09:52;;;;;;;0.50;0.40;;;;;;;9.61;100.00;97328.97;15266008;19;21059;-66
2022/11/04 09:15:17;;;;;;;0.60;0.47;;;;;;;9.58;100.00;97340.09;15267136;19;20372;-67
2022/11/04 09:20:45;;;;;;;0.50;0.50;;;;;;;9.45;100.00;97351.44;15266917;19;20688;-64
2022/11/04 09:26:13;;;;;;;0.88;0.50;;;;;;;9.40;100.00;97374.34;15259390;19;20518;-67
2022/11/04 09:31:39;;;;;;;0.80;0.50;;;;;;;9.35;100.00;97373.22;15265595;19;20025;-67
2022/11/04 09:37:06;;;;;;;1.30;0.30;;;;;;;9.33;100.00;97389.50;15266588;19;20018;-67
2022/11/04 09:42:47;;;;;;;0.93;0.50;;;;;;;9.28;100.00;97388.38;15263213;19;20018;-67
2022/11/04 09:48:16;;;;;;;1.77;0.50;;;;;;;9.30;100.00;97394.41;15261589;19;20015;-66
2022/11/04 09:53:55;;;;;;;0.65;0.40;;;;;;;9.27;100.00;97408.19;15262947;19;20011;-67
2022/11/04 09:59:28;;;;;;;0.73;0.40;;;;;;;9.27;100.00;97406.34;15262083;19;20015;-65
2022/11/04 10:05:03;;;;;;;0.70;0.40;;;;;;;9.31;100.00;97394.22;15263439;19;20386;-66
2022/11/04 10:10:38;;;;;;;0.50;0.30;;;;;;;9.27;100.00;97398.28;15263040;19;20504;-66
2022/11/04 10:16:17;;;;;;;1.65;0.50;;;;;;;9.29;100.00;97390.03;15263762;19;20092;-66
2022/11/04 10:21:49;;;;;;;1.45;0.50;;;;;;;9.25;100.00;97382.34;15261169;19;20413;-67
2022/11/04 10:27:21;;;;;;;1.10;0.50;;;;;;;9.24;100.00;97388.72;15258355;19;20018;-64
2022/11/04 10:32:48;;;;;;;1.27;0.55;;;;;;;9.28;100.00;97388.38;15255648;19;20029;-64
2022/11/04 10:38:19;;;;;;;1.48;0.50;;;;;;;9.28;100.00;97399.13;15266498;19;20372;-64
2022/11/04 10:43:48;;;;;;;1.83;0.60;;;;;;;9.27;100.00;97400.97;15277915;19;20018;-65
2022/11/04 10:49:31;;;;;;;0.65;0.40;;;;;;;9.27;100.00;97400.97;15276828;19;20014;-63
2022/11/04 10:54:57;;;;;;;2.47;0.73;;;;;;;9.30;100.00;97397.91;15279061;19;20035;-61
2022/11/04 11:00:41;;;;;;;2.28;0.70;;;;;;;9.25;100.00;97400.31;15280197;19;20018;-62
2022/11/04 11:06:23;;;;;;;2.38;0.70;;;;;;;9.24;100.00;97402.16;15278758;19;20423;-62
2022/11/04 11:11:50;;;;;;;2.13;0.60;;;;;;;9.25;100.00;97406.50;15283841;19;20025;-65
2022/11/04 11:17:29;;;;;;;2.85;0.60;;;;;;;9.24;100.00;97415.59;15279047;19;20023;-61
2022/11/04 11:22:55;;;;;;;2.38;0.70;;;;;;;9.22;100.00;97406.91;15275500;19;20097;-62
2022/11/04 11:28:36;;;;;;;3.17;0.60;;;;;;;9.25;100.00;97416.44;15275168;19;20487;-65
2022/11/04 11:34:07;;;;;;;3.45;0.60;;;;;;;9.23;100.00;97419.28;15270440;19;20019;-64
2022/11/04 11:39:33;;;;;;;2.40;0.57;;;;;;;9.31;100.00;97404.16;15276413;19;20483;-64
2022/11/04 11:45:02;;;;;;;1.27;0.60;;;;;;;9.37;100.00;97400.72;15277115;19;20026;-64
2022/11/04 11:50:33;;;;;;;2.53;0.70;;;;;;;9.37;100.00;97400.72;15325806;19;20011;-64
2022/11/04 11:56:16;;;;;;;3.17;0.80;;;;;;;9.37;100.00;97393.53;15279866;19;20018;-62
2022/11/04 12:01:45;;;;;;;2.70;0.75;;;;;;;9.48;100.00;97394.94;15272455;19;20025;-63
2022/11/04 12:07:19;;;;;;;1.77;0.70;;;;;;;9.56;100.00;97394.91;15271820;19;20045;-64
2022/11/04 12:13:15;;;;;;;2.55;0.70;;;;;;;9.67;100.00;97393.63;15272963;19;20116;-64
2022/11/04 12:18:57;;;;;;;1.60;0.60;;;;;;;9.75;100.00;97395.41;15274148;19;20015;-62
2022/11/04 12:24:36;;;;;;;2.10;0.52;;;;;;;9.84;100.00;97394.31;15273684;19;20409;-62
2022/11/04 12:30:12;;;;;;;2.13;0.70;;;;;;;9.97;100.00;97398.22;15269717;19;20693;-64
2022/11/04 12:35:58;;;;;;;1.95;0.70;;;;;;;10.09;100.00;97391.38;15272650;19;20086;-64
2022/11/04 12:41:36;;;;;;;2.72;0.70;;;;;;;10.15;100.00;97393.34;15267970;19;20018;-64
2022/11/04 12:47:33;;;;;;;1.92;0.60;;;;;;;10.07;100.00;97377.28;15270804;19;20083;-64
2022/11/04 12:53:16;;;;;;;3.38;1.00;;;;;;;10.12;100.00;97384.78;15270696;19;20014;-64
2022/11/04 12:59:13;;;;;;;2.35;0.80;;;;;;;10.07;100.00;97387.22;15271841;19;20022;-64
2022/11/04 13:04:43;;;;;;;1.52;0.70;;;;;;;10.13;100.00;97397.22;15270262;19;20042;-64
2022/11/04 13:10:18;;;;;;;2.63;0.80;;;;;;;10.12;100.00;97401.78;15267511;19;20018;-64
2022/11/04 13:15:52;;;;;;;2.47;0.73;;;;;;;10.08;100.00;97411.22;15270609;19;20020;-63
2022/11/04 13:21:21;;;;;;;3.47;1.10;;;;;;;10.09;100.00;97404.84;15269706;19;20022;-64
2022/11/04 13:26:45;;;;;;;3.38;0.80;;;;;;;10.11;100.00;97415.44;15268075;19;20043;-64
2022/11/04 13:32:21;;;;;;;3.60;1.00;;;;;;;10.05;100.00;97418.84;15265664;19;20018;-62
2022/11/04 13:37:52;;;;;;;1.95;0.68;;;;;;;10.08;100.00;97415.78;15267337;19;20964;-62
2022/11/04 13:43:39;;;;;;;2.60;0.80;;;;;;;10.08;100.00;97422.00;15260201;19;20018;-64
2022/11/04 13:49:29;;;;;;;2.78;0.77;;;;;;;10.09;100.00;97431.75;15265300;19;20031;-63
2022/11/04 13:54:59;;;;;;;2.70;0.90;;;;;;;10.15;100.00;97441.78;15266601;19;20017;-63
2022/11/04 14:00:31;;;;;;;3.57;0.97;;;;;;;10.14;100.00;97452.72;15265551;19;20035;-64
2022/11/04 14:06:07;;;;;;;3.53;0.90;;;;;;;10.11;100.00;97453.94;15266380;19;20043;-64
2022/11/04 14:11:31;;;;;;;4.95;0.90;;;;;;;10.09;100.00;97458.66;15264938;19;20588;-61
2022/11/04 14:16:56;;;;;;;3.53;1.00;;;;;;;10.03;100.00;97451.31;15277299;19;21030;-64
2022/11/04 14:22:26;;;;;;;2.85;1.02;;;;;;;10.01;100.00;97458.75;15279380;19;20779;-64
2022/11/04 14:27:52;;;;;;;7.43;0.90;;;;;;;9.98;100.00;97461.78;15279920;19;20388;-64
2022/11/04 14:33:45;;;;;;;2.45;0.80;;;;;;;9.96;100.00;97461.13;15277216;19;20025;-63
2022/11/04 14:39:22;;;;;;;;;;;;;;;9.87;100.00;97463.06;15281642;19;20026;-62
2022/11/04 14:44:53;;;;;;;3.42;0.90;;;;;;;9.88;100.00;97472.78;15279767;19;20298;-65
2022/11/04 14:50:28;;;;;;;3.70;0.73;;;;;;;9.83;100.00;97467.94;15273564;19;20014;-64
2022/11/04 14:56:15;;;;;;;5.75;1.00;;;;;;;9.75;100.00;97473.41;15272800;19;20014;-63
2022/11/04 15:01:42;;;;;;;2.88;0.90;;;;;;;9.74;100.00;97474.41;15272342;19;20007;-65
2022/11/04 15:07:09;;;;;;;2.95;0.77;;;;;;;9.67;100.00;97479.66;15274552;19;20039;-65
2022/11/04 15:12:54;;;;;;;4.03;0.90;;;;;;;9.58;100.00;97482.63;15270913;19;20026;-64
2022/11/04 15:18:25;;;;;;;2.72;0.88;;;;;;;9.48;100.00;97489.03;15274969;19;20502;-63
2022/11/04 15:23:52;;;;;;;3.50;0.90;;;;;;;9.39;100.00;97495.47;15263871;19;20021;-65
2022/11/04 15:29:20;;;;;;;3.15;0.80;;;;;;;9.31;100.00;97506.28;15273519;19;21125;-65
2022/11/04 15:34:44;;;;;;;2.53;0.85;;;;;;;9.22;100.00;97510.84;15276741;19;20483;-65
2022/11/04 15:40:09;;;;;;;3.70;1.10;;;;;;;9.12;100.00;97524.50;15274705;19;20018;-64
2022/11/04 15:45:40;;;;;;;2.28;0.98;;;;;;;9.01;100.00;97530.25;15275564;19;20592;-66
2022/11/04 15:51:23;;;;;;;2.80;1.00;;;;;;;8.93;100.00;97529.28;15270730;19;20018;-65
2022/11/04 15:56:59;;;;;;;4.03;1.10;;;;;;;8.91;100.00;97538.53;15269450;19;20017;-65
2022/11/04 16:02:32;;;;;;;2.40;0.90;;;;;;;8.91;100.00;97549.25;15270639;19;20046;-64
2022/11/04 16:07:59;;;;;;;4.15;1.08;;;;;;;8.90;100.00;97543.03;15269193;19;20509;-65
2022/11/04 16:13:26;;;;;;;2.92;1.00;;;;;;;8.90;100.00;97547.59;15269711;19;20010;-64
2022/11/04 16:19:00;;;;;;;2.75;0.98;;;;;;;8.90;100.00;97556.47;15272653;19;20417;-64
2022/11/04 16:24:28;;;;;;;2.42;1.20;;;;;;;8.87;100.00;97566.72;15269605;19;20026;-64
2022/11/04 16:29:59;;;;;;;3.25;1.20;;;;;;;8.80;100.00;97574.63;15267163;19;20026;-65
2022/11/04 16:35:29;;;;;;;2.83;1.10;;;;;;;8.76;100.00;97578.69;15269359;19;20018;-65
2022/11/04 16:40:57;;;;;;;3.75;1.40;;;;;;;8.71;100.00;97587.22;15265947;19;20026;-63
2022/11/04 16:46:23;;;;;;;3.58;1.27;;;;;;;8.64;100.00;97594.28;15270105;19;20010;-65
2022/11/04 16:51:50;;;;;;;3.40;1.30;;;;;;;8.56;100.00;97595.13;15268792;19;20025;-63
2022/11/04 16:57:23;;;;;;;4.80;1.33;;;;;;;8.55;100.00;97598.00;15260939;19;20429;-65
2022/11/04 17:02:48;;;;;;;4.13;1.40;;;;;;;8.50;100.00;97590.44;15268597;19;20051;-63
2022/11/04 17:08:18;;;;;;;3.65;1.40;;;;;;;8.47;100.00;97586.22;15268492;19;20019;-64
2022/11/04 17:13:42;;;;;;;4.07;1.30;;;;;;;8.45;100.00;97598.13;15267546;19;20387;-63
2022/11/04 17:19:07;;;;;;;2.80;1.20;;;;;;;8.42;100.00;97598.44;15267386;19;20078;-62
2022/11/04 17:24:36;;;;;;;3.67;1.42;;;;;;;8.38;100.00;97594.44;15267677;19;20015;-63
2022/11/04 17:30:01;;;;;;;3.53;1.40;;;;;;;8.34;100.00;97596.63;15239178;19;20026;-63
2022/11/04 17:35:26;;;;;;;3.15;1.20;;;;;;;8.27;100.00;97596.47;15268835;19;20492;-63
2022/11/04 17:46:36;;;;;;;3.90;1.70;;;;;;;8.20;100.00;97599.97;15266101;19;20030;-65
2022/11/04 17:52:03;;;;;;;5.28;2.15;;;;;;;8.16;100.00;97599.47;15278521;19;20022;-65
2022/11/04 17:57:37;;;;;;;4.65;2.30;;;;;;;8.15;100.00;97608.53;15279006;19;20407;-65
2022/11/04 18:03:01;;;;;;;5.65;1.80;;;;;;;8.10;100.00;97611.72;15272744;19;20735;-64
2022/11/04 18:08:26;;;;;;;5.15;1.92;;;;;;;8.10;100.00;97622.44;15280004;19;20018;-64
2022/11/04 18:13:53;;;;;;;4.75;2.28;;;;;;;8.07;100.00;97622.75;15276008;19;20021;-63
2022/11/04 18:19:18;;;;;;;4.65;2.45;;;;;;;8.04;100.00;97627.63;15277339;19;20361;-64
2022/11/04 18:24:43;;;;;;;4.43;1.95;;;;;;;8.01;100.00;97637.66;15280219;19;20023;-66
2022/11/04 18:30:11;;;;;;;3.38;1.90;;;;;;;7.98;100.00;97638.00;15276079;19;20042;-64
2022/11/04 18:35:36;;;;;;;3.08;1.67;;;;;;;7.96;100.00;97645.34;15272732;19;20098;-64
2022/11/04 18:41:02;;;;;;;3.42;1.40;;;;;;;7.93;100.00;97640.34;15270253;19;20035;-64
2022/11/04 18:46:30;;;;;;;4.40;1.70;;;;;;;7.92;100.00;97638.66;15279150;19;20002;-64
2022/11/04 18:51:56;;;;;;;3.72;1.55;;;;;;;7.91;100.00;97653.06;15275413;19;20007;-64
2022/11/04 18:57:28;;;;;;;2.95;1.60;;;;;;;7.90;100.00;97653.22;15273319;19;20348;-64
2022/11/04 19:02:55;;;;;;;4.63;1.60;;;;;;;7.89;100.00;97655.06;15271549;19;20372;-64
2022/11/04 19:08:20;;;;;;;3.05;1.50;;;;;;;7.84;100.00;97658.25;15270294;19;20022;-64
2022/11/04 19:13:51;;;;;;;3.75;1.77;;;;;;;7.80;100.00;97666.78;15267550;19;20025;-64
2022/11/04 19:19:24;;;;;;;4.72;1.70;;;;;;;7.76;100.00;97678.81;15275333;19;20029;-64
2022/11/04 19:24:48;;;;;;;4.40;1.70;;;;;;;7.70;100.00;97696.41;15276766;19;20022;-64
2022/11/04 19:30:15;;;;;;;6.30;2.10;;;;;;;7.64;100.00;97699.72;15272375;19;20018;-64
2022/11/04 19:35:42;;;;;;;5.22;2.75;;;;;;;7.58;100.00;97714.63;15275671;19;20033;-64
2022/11/04 19:43:07;;;;;;;7.40;3.28;;;;;;;7.56;100.00;97721.97;15268582;19;20037;-64
2022/11/04 19:46:57;;;;;;;4.78;2.40;;;;;;;7.55;100.00;97731.84;15276884;19;20028;-64
2022/11/04 19:52:25;;;;;;;4.53;2.47;;;;;;;7.54;100.00;97740.03;15273469;19;20106;-64
2022/11/04 19:57:57;;;;;;;5.03;2.75;;;;;;;7.51;100.00;97754.63;15265966;19;20088;-64
2022/11/04 20:03:22;;;;;;;;;;;;;;;7.51;100.00;97756.44;15269413;19;20014;-64
2022/11/04 20:08:52;;;;;;;4.50;2.80;;;;;;;7.55;100.00;97779.25;15271902;19;19978;-64
2022/11/04 20:14:19;;;;;;;6.55;3.00;;;;;;;7.57;100.00;97782.63;15263967;19;20433;-64
2022/11/04 20:19:44;;;;;;;5.68;2.80;;;;;;;7.57;100.00;97787.97;15270044;19;20027;-64
2022/11/04 20:25:12;;;;;;;5.25;3.05;;;;;;;7.59;100.00;97798.53;15273231;19;20774;-63
2022/11/04 20:30:36;;;;;;;5.93;3.17;;;;;;;7.58;100.00;97799.53;15270995;19;20045;-64
2022/11/04 20:36:00;;;;;;;6.55;3.35;;;;;;;7.55;100.00;97804.19;15271460;19;20019;-63
2022/11/04 20:41:28;;;;;;;5.70;3.10;;;;;;;7.51;100.00;97807.34;15270194;19;20943;-64
2022/11/04 20:46:53;;;;;;;3.97;2.40;;;;;;;7.50;100.00;97819.06;15265479;19;20014;-63
2022/11/04 20:52:17;;;;;;;5.45;2.42;;;;;;;7.48;100.00;97821.06;15267702;19;20043;-63
2022/11/04 20:57:51;;;;;;;4.68;2.20;;;;;;;7.44;100.00;97825.91;15266335;19;20018;-64
2022/11/04 21:03:15;;;;;;;5.13;2.08;;;;;;;7.46;100.00;97831.13;15267324;19;20050;-64
2022/11/04 21:08:42;;;;;;;5.70;2.28;;;;;;;7.45;100.00;97826.75;15267565;19;20015;-64
2022/11/04 21:14:13;;;;;;;5.45;3.08;;;;;;;7.45;100.00;97840.16;15265609;19;20014;-64
2022/11/04 21:19:38;;;;;;;5.20;2.97;;;;;;;7.45;100.00;97835.63;15267275;19;20025;-65
2022/11/04 21:25:02;;;;;;;7.05;3.05;;;;;;;7.46;100.00;97844.53;15266835;19;20014;-65
2022/11/04 21:30:37;;;;;;;5.47;2.85;;;;;;;7.47;100.00;97847.03;15266269;19;20022;-65
2022/11/04 21:36:04;;;;;;;4.78;2.70;;;;;;;7.44;100.00;97855.38;15267117;19;20014;-65
2022/11/04 21:41:32;;;;;;;8.10;3.05;;;;;;;7.42;100.00;97854.69;15263846;19;20019;-65
2022/11/04 21:46:59;;;;;;;5.38;2.97;;;;;;;7.42;100.00;97851.19;15261029;19;20074;-63
2022/11/04 21:52:25;;;;;;;5.65;2.72;;;;;;;7.36;100.00;97860.69;15263212;19;20022;-65
2022/11/04 21:57:56;;;;;;;5.63;2.80;;;;;;;7.37;100.00;97863.19;15263659;19;20472;-63
2022/11/04 22:03:23;;;;;;;4.73;2.57;;;;;;;7.38;100.00;97872.09;15264492;19;20043;-64
2022/11/04 22:08:53;;;;;;;5.63;2.70;;;;;;;7.37;100.00;97865.88;15265389;19;20019;-62
2022/11/04 22:14:17;;;;;;;5.38;2.63;;;;;;;7.39;100.00;97868.44;15262864;19;20055;-63
2022/11/04 22:19:45;;;;;;;4.55;2.55;;;;;;;7.40;100.00;97878.16;15260461;19;20027;-62
2022/11/04 22:25:10;;;;;;;7.53;3.00;;;;;;;7.40;100.00;97876.31;15265663;19;20031;-61
2022/11/04 22:30:35;;;;;;;4.72;2.80;;;;;;;7.42;100.00;97875.31;15264532;19;20027;-62
2022/11/04 22:36:03;;;;;;;5.45;2.70;;;;;;;7.42;100.00;97875.31;15274793;19;20026;-60
2022/11/04 22:41:30;;;;;;;4.32;2.63;;;;;;;7.40;100.00;97889.69;15275269;19;20022;-62
2022/11/04 22:46:54;;;;;;;5.85;2.70;;;;;;;7.38;100.00;97890.84;15279205;19;20014;-61
2022/11/04 22:52:22;;;;;;;4.85;2.63;;;;;;;7.34;100.00;97895.69;15272019;19;20022;-62
2022/11/04 22:57:47;;;;;;;5.03;2.47;;;;;;;7.32;100.00;97899.50;15271528;19;20337;-62
2022/11/04 23:03:13;;;;;;;5.10;2.80;;;;;;;7.25;100.00;97908.16;15276655;19;20078;-64
2022/11/04 23:08:43;;;;;;;5.93;2.55;;;;;;;7.20;100.00;97904.25;15274033;19;20042;-61
2022/11/04 23:19:57;;;;;;;5.13;2.30;;;;;;;7.11;100.00;97915.88;15279233;19;20022;-62
2022/11/04 23:25:25;;;;;;;5.18;2.90;;;;;;;7.04;100.00;97921.00;15273445;19;20010;-62
2022/11/04 23:30:53;;;;;;;8.10;2.50;;;;;;;7.01;100.00;97932.84;15275980;19;21121;-62
2022/11/04 23:42:18;;;;;;;5.50;2.83;;;;;;;6.94;100.00;97931.78;15272642;19;20035;-63
